Aérodrome :
LOGIN :

S'inscrire | Disclaimer

   EN    FR    IT 

 










Légende :    VFR   VFR Marginal   IFR   IFR Intensif   IFR Très Intensif
Visi : 
Plafond : 
>= 8 km
>= 3000ft
5 à 8 km
1000 à 3000 ft
1500m à 5 km
500 à 1000 ft
800 à 1500m
200 à 500 ft
< 800m
< 200 ft
Symboles :   Orages  Brouillard  Fortes neiges  Fortes précipitations  Vent > 20 kt
SIGMETs :   Divers  Orages  Givrage  Turbulence  Onde Orograph.  Cendres Volcan.






- Altitude de l'aérodrome : 2425 ft


ETHA - Altenstadt Army

DERNIER METAR :
  • 141020Z 28013KT 9999 FEW040 OVC080 14/08 Q1016 BLU

METARs EXPIRÉS :
  • 141000Z 29011KT 9999 FEW040 OVC080 15/08 Q1016 BLU FCST CNL
  • 140920Z 29010KT 9999 FEW040 SCT060 OVC080 15/07 Q1015 BLU BLU
  • 140820Z 29011KT 9999 FEW006 BKN080 16/07 Q1015 BLU BLU
  • 140720Z 20003KT 9999 BKN080 BKN110 13/09 Q1015 BLU BLU
  • 140620Z 25002KT 9999 BKN080 12/09 Q1014 BLU BLU

TAF TAF ETHA
Valide du 14 à 08h jusqu'au 14 à 17h UTC


140720Z 1408/1417 26005KT 9999 NSW BKN070



MET'MAP, la Météo Aéronautique d'un coup d'oeil ! - Copyright ORBIFLY Décembre 2007 - Disclaimer

ORBIFLY MET'MAP TEAM :

Programmation & Développement : Alexandra Zaïnal
Sur une idée originale de : Baudouin d'Aumeries
Soutien technique & logistique : Manuel Goepfert
Assistance : Marc-Olivier Méhu




SOURCES & CREDITS :

   NOAA